sensor_id;sensor_type;location;lat;lon;timestamp;P1;durP1;ratioP1;P2;durP2;ratioP2
10442;SDS011;5269;51.146;16.986;2023-02-18T00:00:00;2.50;;;1.63;;
10442;SDS011;5269;51.146;16.986;2023-02-18T00:02:27;2.08;;;1.50;;
10442;SDS011;5269;51.146;16.986;2023-02-18T00:04:54;1.42;;;1.33;;
10442;SDS011;5269;51.146;16.986;2023-02-18T00:07:21;2.13;;;1.40;;
10442;SDS011;5269;51.146;16.986;2023-02-18T00:09:48;2.97;;;1.40;;
10442;SDS011;5269;51.146;16.986;2023-02-18T00:12:16;1.58;;;1.48;;
10442;SDS011;5269;51.146;16.986;2023-02-18T00:14:43;1.40;;;1.30;;
10442;SDS011;5269;51.146;16.986;2023-02-18T00:17:10;1.30;;;1.13;;
10442;SDS011;5269;51.146;16.986;2023-02-18T00:19:37;1.60;;;1.42;;
10442;SDS011;5269;51.146;16.986;2023-02-18T00:22:04;1.73;;;1.40;;
10442;SDS011;5269;51.146;16.986;2023-02-18T00:24:31;1.20;;;1.20;;
10442;SDS011;5269;51.146;16.986;2023-02-18T00:26:57;1.45;;;1.35;;
10442;SDS011;5269;51.146;16.986;2023-02-18T00:29:26;1.70;;;1.40;;
10442;SDS011;5269;51.146;16.986;2023-02-18T00:31:53;1.90;;;1.30;;
10442;SDS011;5269;51.146;16.986;2023-02-18T00:34:19;1.70;;;1.27;;
10442;SDS011;5269;51.146;16.986;2023-02-18T00:36:46;2.25;;;1.40;;
10442;SDS011;5269;51.146;16.986;2023-02-18T00:39:13;1.70;;;1.60;;
10442;SDS011;5269;51.146;16.986;2023-02-18T00:41:40;1.77;;;1.60;;
10442;SDS011;5269;51.146;16.986;2023-02-18T00:44:08;1.70;;;1.50;;
10442;SDS011;5269;51.146;16.986;2023-02-18T00:46:37;1.50;;;1.40;;
10442;SDS011;5269;51.146;16.986;2023-02-18T00:49:04;2.33;;;1.52;;
10442;SDS011;5269;51.146;16.986;2023-02-18T00:51:32;1.42;;;1.33;;
10442;SDS011;5269;51.146;16.986;2023-02-18T00:53:59;2.45;;;1.40;;
10442;SDS011;5269;51.146;16.986;2023-02-18T00:56:26;1.35;;;1.25;;
10442;SDS011;5269;51.146;16.986;2023-02-18T00:58:53;1.50;;;1.40;;
10442;SDS011;5269;51.146;16.986;2023-02-18T01:01:20;1.60;;;1.50;;
10442;SDS011;5269;51.146;16.986;2023-02-18T01:03:49;1.83;;;1.30;;
10442;SDS011;5269;51.146;16.986;2023-02-18T01:06:16;1.73;;;1.45;;
10442;SDS011;5269;51.146;16.986;2023-02-18T01:08:43;1.77;;;1.20;;
10442;SDS011;5269;51.146;16.986;2023-02-18T01:11:10;2.08;;;1.40;;
10442;SDS011;5269;51.146;16.986;2023-02-18T01:13:38;2.05;;;1.50;;
10442;SDS011;5269;51.146;16.986;2023-02-18T01:16:06;2.47;;;1.48;;
10442;SDS011;5269;51.146;16.986;2023-02-18T01:18:33;2.45;;;1.70;;
10442;SDS011;5269;51.146;16.986;2023-02-18T01:21:01;1.70;;;1.50;;
10442;SDS011;5269;51.146;16.986;2023-02-18T01:23:29;1.88;;;1.50;;
10442;SDS011;5269;51.146;16.986;2023-02-18T01:25:56;1.90;;;1.50;;
10442;SDS011;5269;51.146;16.986;2023-02-18T01:28:23;3.38;;;1.50;;
10442;SDS011;5269;51.146;16.986;2023-02-18T01:30:51;1.95;;;1.50;;
10442;SDS011;5269;51.146;16.986;2023-02-18T01:33:18;1.40;;;1.30;;
10442;SDS011;5269;51.146;16.986;2023-02-18T01:35:45;1.35;;;1.25;;
10442;SDS011;5269;51.146;16.986;2023-02-18T01:38:14;1.67;;;1.40;;
10442;SDS011;5269;51.146;16.986;2023-02-18T01:40:45;1.42;;;1.33;;
10442;SDS011;5269;51.146;16.986;2023-02-18T01:43:15;1.35;;;1.25;;
10442;SDS011;5269;51.146;16.986;2023-02-18T01:45:49;1.20;;;1.10;;
10442;SDS011;5269;51.146;16.986;2023-02-18T01:48:25;2.85;;;1.40;;
10442;SDS011;5269;51.146;16.986;2023-02-18T01:50:56;1.20;;;1.15;;
10442;SDS011;5269;51.146;16.986;2023-02-18T01:53:29;2.75;;;1.15;;
10442;SDS011;5269;51.146;16.986;2023-02-18T01:56:01;3.70;;;1.40;;
10442;SDS011;5269;51.146;16.986;2023-02-18T01:58:31;1.35;;;1.20;;
10442;SDS011;5269;51.146;16.986;2023-02-18T02:00:58;1.33;;;1.20;;
10442;SDS011;5269;51.146;16.986;2023-02-18T02:03:25;2.13;;;1.20;;
10442;SDS011;5269;51.146;16.986;2023-02-18T02:05:52;1.92;;;1.20;;
10442;SDS011;5269;51.146;16.986;2023-02-18T02:08:19;1.10;;;1.10;;
10442;SDS011;5269;51.146;16.986;2023-02-18T02:10:52;1.35;;;1.10;;
10442;SDS011;5269;51.146;16.986;2023-02-18T02:13:32;1.48;;;1.35;;
10442;SDS011;5269;51.146;16.986;2023-02-18T02:16:17;1.38;;;1.20;;
10442;SDS011;5269;51.146;16.986;2023-02-18T02:18:55;1.73;;;1.20;;
10442;SDS011;5269;51.146;16.986;2023-02-18T02:21:42;3.13;;;1.10;;
10442;SDS011;5269;51.146;16.986;2023-02-18T02:24:49;1.63;;;1.00;;
10442;SDS011;5269;51.146;16.986;2023-02-18T02:27:24;1.27;;;1.20;;
10442;SDS011;5269;51.146;16.986;2023-02-18T02:30:00;1.65;;;1.20;;
10442;SDS011;5269;51.146;16.986;2023-02-18T02:33:03;1.13;;;1.00;;
10442;SDS011;5269;51.146;16.986;2023-02-18T02:36:00;1.40;;;1.30;;
10442;SDS011;5269;51.146;16.986;2023-02-18T02:38:33;2.03;;;1.30;;
10442;SDS011;5269;51.146;16.986;2023-02-18T02:41:09;2.10;;;1.27;;
10442;SDS011;5269;51.146;16.986;2023-02-18T02:43:47;1.13;;;1.10;;
10442;SDS011;5269;51.146;16.986;2023-02-18T02:46:22;2.72;;;1.35;;
10442;SDS011;5269;51.146;16.986;2023-02-18T02:48:56;1.52;;;1.40;;
10442;SDS011;5269;51.146;16.986;2023-02-18T02:51:31;1.92;;;1.83;;
10442;SDS011;5269;51.146;16.986;2023-02-18T02:54:09;3.22;;;1.52;;
10442;SDS011;5269;51.146;16.986;2023-02-18T02:56:39;1.50;;;1.30;;
10442;SDS011;5269;51.146;16.986;2023-02-18T02:59:08;1.20;;;1.10;;
10442;SDS011;5269;51.146;16.986;2023-02-18T03:01:40;1.40;;;1.30;;
10442;SDS011;5269;51.146;16.986;2023-02-18T03:04:37;3.10;;;1.58;;
10442;SDS011;5269;51.146;16.986;2023-02-18T03:07:30;1.52;;;1.40;;
10442;SDS011;5269;51.146;16.986;2023-02-18T03:10:30;1.70;;;1.30;;
10442;SDS011;5269;51.146;16.986;2023-02-18T03:13:08;1.45;;;1.20;;
10442;SDS011;5269;51.146;16.986;2023-02-18T03:15:46;3.90;;;1.38;;
10442;SDS011;5269;51.146;16.986;2023-02-18T03:18:19;1.70;;;1.23;;
10442;SDS011;5269;51.146;16.986;2023-02-18T03:20:50;2.38;;;1.33;;
10442;SDS011;5269;51.146;16.986;2023-02-18T03:23:24;1.90;;;1.42;;
10442;SDS011;5269;51.146;16.986;2023-02-18T03:25:57;1.92;;;1.30;;
10442;SDS011;5269;51.146;16.986;2023-02-18T03:28:26;2.40;;;1.50;;
10442;SDS011;5269;51.146;16.986;2023-02-18T03:30:57;1.30;;;1.20;;
10442;SDS011;5269;51.146;16.986;2023-02-18T03:33:27;1.80;;;1.20;;
10442;SDS011;5269;51.146;16.986;2023-02-18T03:36:00;1.25;;;1.13;;
10442;SDS011;5269;51.146;16.986;2023-02-18T03:38:30;2.30;;;1.50;;
10442;SDS011;5269;51.146;16.986;2023-02-18T03:41:01;1.98;;;1.30;;
10442;SDS011;5269;51.146;16.986;2023-02-18T03:43:29;1.38;;;1.20;;
10442;SDS011;5269;51.146;16.986;2023-02-18T03:45:56;1.83;;;1.40;;
10442;SDS011;5269;51.146;16.986;2023-02-18T03:48:24;2.63;;;1.27;;
10442;SDS011;5269;51.146;16.986;2023-02-18T03:50:51;1.90;;;1.40;;
10442;SDS011;5269;51.146;16.986;2023-02-18T03:53:18;1.50;;;1.20;;
10442;SDS011;5269;51.146;16.986;2023-02-18T03:55:46;1.42;;;1.20;;
10442;SDS011;5269;51.146;16.986;2023-02-18T03:58:13;1.98;;;1.33;;
10442;SDS011;5269;51.146;16.986;2023-02-18T04:00:40;1.58;;;1.35;;
10442;SDS011;5269;51.146;16.986;2023-02-18T04:03:06;2.35;;;1.45;;
10442;SDS011;5269;51.146;16.986;2023-02-18T04:05:33;2.17;;;1.40;;
10442;SDS011;5269;51.146;16.986;2023-02-18T04:08:00;3.58;;;1.60;;
10442;SDS011;5269;51.146;16.986;2023-02-18T04:10:27;1.75;;;1.40;;
10442;SDS011;5269;51.146;16.986;2023-02-18T04:12:55;1.33;;;1.23;;
10442;SDS011;5269;51.146;16.986;2023-02-18T04:15:22;1.92;;;1.33;;
10442;SDS011;5269;51.146;16.986;2023-02-18T04:17:49;2.63;;;1.38;;
10442;SDS011;5269;51.146;16.986;2023-02-18T04:20:16;1.67;;;1.30;;
10442;SDS011;5269;51.146;16.986;2023-02-18T04:22:43;2.83;;;1.38;;
10442;SDS011;5269;51.146;16.986;2023-02-18T04:25:10;1.52;;;1.25;;
10442;SDS011;5269;51.146;16.986;2023-02-18T04:27:37;2.75;;;1.25;;
10442;SDS011;5269;51.146;16.986;2023-02-18T04:30:06;1.60;;;1.50;;
10442;SDS011;5269;51.146;16.986;2023-02-18T04:32:33;1.75;;;1.38;;
10442;SDS011;5269;51.146;16.986;2023-02-18T04:35:00;1.30;;;1.20;;
10442;SDS011;5269;51.146;16.986;2023-02-18T04:37:27;2.83;;;1.30;;
10442;SDS011;5269;51.146;16.986;2023-02-18T04:39:54;1.85;;;1.30;;
10442;SDS011;5269;51.146;16.986;2023-02-18T04:42:21;3.05;;;1.33;;
10442;SDS011;5269;51.146;16.986;2023-02-18T04:44:48;1.92;;;1.40;;
10442;SDS011;5269;51.146;16.986;2023-02-18T04:47:16;2.58;;;1.40;;
10442;SDS011;5269;51.146;16.986;2023-02-18T04:49:43;1.75;;;1.40;;
10442;SDS011;5269;51.146;16.986;2023-02-18T04:52:10;3.00;;;1.50;;
10442;SDS011;5269;51.146;16.986;2023-02-18T04:54:36;2.72;;;1.48;;
10442;SDS011;5269;51.146;16.986;2023-02-18T04:57:03;3.88;;;1.70;;
10442;SDS011;5269;51.146;16.986;2023-02-18T04:59:30;3.30;;;1.50;;
10442;SDS011;5269;51.146;16.986;2023-02-18T05:01:57;2.05;;;1.35;;
10442;SDS011;5269;51.146;16.986;2023-02-18T05:04:25;1.55;;;1.40;;
10442;SDS011;5269;51.146;16.986;2023-02-18T05:06:52;2.65;;;1.40;;
10442;SDS011;5269;51.146;16.986;2023-02-18T05:09:19;1.50;;;1.15;;
10442;SDS011;5269;51.146;16.986;2023-02-18T05:11:46;1.40;;;1.30;;
10442;SDS011;5269;51.146;16.986;2023-02-18T05:14:13;1.30;;;1.20;;
10442;SDS011;5269;51.146;16.986;2023-02-18T05:16:40;1.98;;;1.35;;
10442;SDS011;5269;51.146;16.986;2023-02-18T05:19:07;2.70;;;1.55;;
10442;SDS011;5269;51.146;16.986;2023-02-18T05:21:37;2.38;;;1.40;;
10442;SDS011;5269;51.146;16.986;2023-02-18T05:24:04;1.42;;;1.20;;
10442;SDS011;5269;51.146;16.986;2023-02-18T05:26:31;2.75;;;1.40;;
10442;SDS011;5269;51.146;16.986;2023-02-18T05:28:58;1.67;;;1.13;;
10442;SDS011;5269;51.146;16.986;2023-02-18T05:31:25;3.05;;;1.50;;
10442;SDS011;5269;51.146;16.986;2023-02-18T05:33:51;2.17;;;1.10;;
10442;SDS011;5269;51.146;16.986;2023-02-18T05:36:18;3.10;;;1.30;;
10442;SDS011;5269;51.146;16.986;2023-02-18T05:38:47;2.13;;;1.45;;
10442;SDS011;5269;51.146;16.986;2023-02-18T05:41:13;2.35;;;1.42;;
10442;SDS011;5269;51.146;16.986;2023-02-18T05:43:40;3.08;;;1.30;;
10442;SDS011;5269;51.146;16.986;2023-02-18T05:46:25;1.38;;;1.10;;
10442;SDS011;5269;51.146;16.986;2023-02-18T05:48:51;2.75;;;1.40;;
10442;SDS011;5269;51.146;16.986;2023-02-18T05:51:18;1.58;;;1.48;;
10442;SDS011;5269;51.146;16.986;2023-02-18T05:53:46;2.95;;;1.40;;
10442;SDS011;5269;51.146;16.986;2023-02-18T05:56:13;1.45;;;1.35;;
10442;SDS011;5269;51.146;16.986;2023-02-18T05:58:40;1.90;;;1.10;;
10442;SDS011;5269;51.146;16.986;2023-02-18T06:01:07;1.75;;;1.20;;
10442;SDS011;5269;51.146;16.986;2023-02-18T06:03:34;1.65;;;1.30;;
10442;SDS011;5269;51.146;16.986;2023-02-18T06:06:01;1.98;;;1.30;;
10442;SDS011;5269;51.146;16.986;2023-02-18T06:08:28;2.30;;;1.40;;
10442;SDS011;5269;51.146;16.986;2023-02-18T06:10:56;1.30;;;1.20;;
10442;SDS011;5269;51.146;16.986;2023-02-18T06:13:23;1.77;;;1.60;;
10442;SDS011;5269;51.146;16.986;2023-02-18T06:15:50;1.67;;;1.48;;
10442;SDS011;5269;51.146;16.986;2023-02-18T06:18:17;2.28;;;1.45;;
10442;SDS011;5269;51.146;16.986;2023-02-18T06:20:45;2.08;;;1.45;;
10442;SDS011;5269;51.146;16.986;2023-02-18T06:23:12;1.90;;;1.50;;
10442;SDS011;5269;51.146;16.986;2023-02-18T06:25:39;1.45;;;1.35;;
10442;SDS011;5269;51.146;16.986;2023-02-18T06:28:07;1.85;;;1.35;;
10442;SDS011;5269;51.146;16.986;2023-02-18T06:30:34;2.55;;;1.63;;
10442;SDS011;5269;51.146;16.986;2023-02-18T06:33:01;1.55;;;1.00;;
10442;SDS011;5269;51.146;16.986;2023-02-18T06:35:28;4.40;;;1.40;;
10442;SDS011;5269;51.146;16.986;2023-02-18T06:37:55;2.05;;;1.60;;
10442;SDS011;5269;51.146;16.986;2023-02-18T06:40:22;2.55;;;1.60;;
10442;SDS011;5269;51.146;16.986;2023-02-18T06:42:49;1.50;;;1.40;;
10442;SDS011;5269;51.146;16.986;2023-02-18T06:45:17;1.25;;;1.15;;
10442;SDS011;5269;51.146;16.986;2023-02-18T06:47:44;2.20;;;1.20;;
10442;SDS011;5269;51.146;16.986;2023-02-18T06:50:11;1.27;;;1.20;;
10442;SDS011;5269;51.146;16.986;2023-02-18T06:52:38;1.85;;;1.45;;
10442;SDS011;5269;51.146;16.986;2023-02-18T06:55:05;1.42;;;1.15;;
10442;SDS011;5269;51.146;16.986;2023-02-18T06:57:33;2.10;;;1.38;;
10442;SDS011;5269;51.146;16.986;2023-02-18T07:00:00;2.85;;;1.35;;
10442;SDS011;5269;51.146;16.986;2023-02-18T07:02:29;1.67;;;1.27;;
10442;SDS011;5269;51.146;16.986;2023-02-18T07:04:55;2.30;;;1.60;;
10442;SDS011;5269;51.146;16.986;2023-02-18T07:07:22;3.70;;;1.60;;
10442;SDS011;5269;51.146;16.986;2023-02-18T07:09:49;2.15;;;1.50;;
10442;SDS011;5269;51.146;16.986;2023-02-18T07:12:16;2.38;;;1.35;;
10442;SDS011;5269;51.146;16.986;2023-02-18T07:14:43;1.55;;;1.35;;
10442;SDS011;5269;51.146;16.986;2023-02-18T07:17:10;5.00;;;1.58;;
10442;SDS011;5269;51.146;16.986;2023-02-18T07:19:38;2.40;;;1.42;;
10442;SDS011;5269;51.146;16.986;2023-02-18T07:22:05;2.05;;;1.30;;
10442;SDS011;5269;51.146;16.986;2023-02-18T07:24:32;2.25;;;1.60;;
10442;SDS011;5269;51.146;16.986;2023-02-18T07:26:59;2.53;;;1.45;;
10442;SDS011;5269;51.146;16.986;2023-02-18T07:29:26;2.17;;;1.60;;
10442;SDS011;5269;51.146;16.986;2023-02-18T07:31:53;2.17;;;1.60;;
10442;SDS011;5269;51.146;16.986;2023-02-18T07:34:20;2.42;;;1.50;;
10442;SDS011;5269;51.146;16.986;2023-02-18T07:36:48;2.67;;;1.70;;
10442;SDS011;5269;51.146;16.986;2023-02-18T07:39:15;3.05;;;1.88;;
10442;SDS011;5269;51.146;16.986;2023-02-18T07:41:44;4.65;;;1.85;;
10442;SDS011;5269;51.146;16.986;2023-02-18T07:44:11;2.72;;;1.70;;
10442;SDS011;5269;51.146;16.986;2023-02-18T07:46:38;2.95;;;1.95;;
10442;SDS011;5269;51.146;16.986;2023-02-18T07:49:06;1.67;;;1.42;;
10442;SDS011;5269;51.146;16.986;2023-02-18T07:51:33;2.03;;;1.60;;
10442;SDS011;5269;51.146;16.986;2023-02-18T07:54:03;1.70;;;1.50;;
10442;SDS011;5269;51.146;16.986;2023-02-18T07:56:30;2.05;;;1.50;;
10442;SDS011;5269;51.146;16.986;2023-02-18T07:58:56;2.28;;;1.50;;
10442;SDS011;5269;51.146;16.986;2023-02-18T08:01:23;2.20;;;1.50;;
10442;SDS011;5269;51.146;16.986;2023-02-18T08:03:50;2.80;;;1.60;;
10442;SDS011;5269;51.146;16.986;2023-02-18T08:06:19;1.90;;;1.67;;
10442;SDS011;5269;51.146;16.986;2023-02-18T08:08:47;1.85;;;1.50;;
10442;SDS011;5269;51.146;16.986;2023-02-18T08:11:15;2.70;;;1.50;;
10442;SDS011;5269;51.146;16.986;2023-02-18T08:13:42;2.30;;;1.83;;
10442;SDS011;5269;51.146;16.986;2023-02-18T08:16:09;3.05;;;1.60;;
10442;SDS011;5269;51.146;16.986;2023-02-18T08:18:36;2.58;;;1.40;;
10442;SDS011;5269;51.146;16.986;2023-02-18T08:21:03;2.10;;;1.30;;
10442;SDS011;5269;51.146;16.986;2023-02-18T08:23:30;1.58;;;1.48;;
10442;SDS011;5269;51.146;16.986;2023-02-18T08:25:57;2.00;;;1.45;;
10442;SDS011;5269;51.146;16.986;2023-02-18T08:28:25;2.05;;;1.33;;
10442;SDS011;5269;51.146;16.986;2023-02-18T08:30:53;1.80;;;1.33;;
10442;SDS011;5269;51.146;16.986;2023-02-18T08:33:20;1.40;;;1.23;;
10442;SDS011;5269;51.146;16.986;2023-02-18T08:35:48;3.60;;;1.52;;
10442;SDS011;5269;51.146;16.986;2023-02-18T08:38:16;1.95;;;1.65;;
10442;SDS011;5269;51.146;16.986;2023-02-18T08:40:43;2.45;;;1.58;;
10442;SDS011;5269;51.146;16.986;2023-02-18T08:43:11;2.45;;;1.40;;
10442;SDS011;5269;51.146;16.986;2023-02-18T08:45:40;1.85;;;1.40;;
10442;SDS011;5269;51.146;16.986;2023-02-18T08:48:08;1.90;;;1.20;;
10442;SDS011;5269;51.146;16.986;2023-02-18T08:50:35;1.98;;;1.10;;
10442;SDS011;5269;51.146;16.986;2023-02-18T08:53:02;1.70;;;1.50;;
10442;SDS011;5269;51.146;16.986;2023-02-18T08:55:30;7.05;;;1.40;;
10442;SDS011;5269;51.146;16.986;2023-02-18T08:57:57;1.33;;;0.93;;
10442;SDS011;5269;51.146;16.986;2023-02-18T09:00:25;1.25;;;1.15;;
10442;SDS011;5269;51.146;16.986;2023-02-18T09:02:53;1.02;;;0.90;;
10442;SDS011;5269;51.146;16.986;2023-02-18T09:05:20;1.60;;;1.20;;
10442;SDS011;5269;51.146;16.986;2023-02-18T09:07:47;1.55;;;1.20;;
10442;SDS011;5269;51.146;16.986;2023-02-18T09:10:14;2.28;;;1.30;;
10442;SDS011;5269;51.146;16.986;2023-02-18T09:12:41;1.27;;;1.10;;
10442;SDS011;5269;51.146;16.986;2023-02-18T09:15:08;2.03;;;1.00;;
10442;SDS011;5269;51.146;16.986;2023-02-18T09:17:35;1.58;;;1.10;;
10442;SDS011;5269;51.146;16.986;2023-02-18T09:20:03;1.35;;;1.20;;
10442;SDS011;5269;51.146;16.986;2023-02-18T09:22:31;2.72;;;1.30;;
10442;SDS011;5269;51.146;16.986;2023-02-18T09:24:58;2.00;;;1.17;;
10442;SDS011;5269;51.146;16.986;2023-02-18T09:27:25;3.00;;;1.13;;
10442;SDS011;5269;51.146;16.986;2023-02-18T09:29:52;1.20;;;1.20;;
10442;SDS011;5269;51.146;16.986;2023-02-18T09:32:19;0.95;;;0.90;;
10442;SDS011;5269;51.146;16.986;2023-02-18T09:34:46;2.38;;;1.20;;
10442;SDS011;5269;51.146;16.986;2023-02-18T09:37:14;1.58;;;1.10;;
10442;SDS011;5269;51.146;16.986;2023-02-18T09:39:42;1.42;;;0.98;;
10442;SDS011;5269;51.146;16.986;2023-02-18T09:42:10;1.60;;;1.50;;
10442;SDS011;5269;51.146;16.986;2023-02-18T09:44:41;1.42;;;1.25;;
10442;SDS011;5269;51.146;16.986;2023-02-18T09:47:12;1.58;;;1.25;;
10442;SDS011;5269;51.146;16.986;2023-02-18T09:49:43;2.38;;;1.20;;
10442;SDS011;5269;51.146;16.986;2023-02-18T09:52:15;1.75;;;1.17;;
10442;SDS011;5269;51.146;16.986;2023-02-18T09:54:45;1.58;;;1.13;;
10442;SDS011;5269;51.146;16.986;2023-02-18T09:57:14;2.15;;;1.45;;
10442;SDS011;5269;51.146;16.986;2023-02-18T09:59:51;1.90;;;1.50;;
10442;SDS011;5269;51.146;16.986;2023-02-18T10:02:24;5.65;;;1.70;;
10442;SDS011;5269;51.146;16.986;2023-02-18T10:04:52;2.38;;;1.30;;
10442;SDS011;5269;51.146;16.986;2023-02-18T10:07:22;2.85;;;1.33;;
10442;SDS011;5269;51.146;16.986;2023-02-18T10:09:51;1.83;;;1.20;;
10442;SDS011;5269;51.146;16.986;2023-02-18T10:12:21;1.45;;;1.30;;
10442;SDS011;5269;51.146;16.986;2023-02-18T10:14:50;1.48;;;1.15;;
10442;SDS011;5269;51.146;16.986;2023-02-18T10:17:18;1.77;;;1.25;;
10442;SDS011;5269;51.146;16.986;2023-02-18T10:19:48;1.73;;;1.42;;
10442;SDS011;5269;51.146;16.986;2023-02-18T10:22:17;1.92;;;1.48;;
10442;SDS011;5269;51.146;16.986;2023-02-18T10:24:47;1.88;;;1.50;;
10442;SDS011;5269;51.146;16.986;2023-02-18T10:27:17;2.97;;;1.65;;
10442;SDS011;5269;51.146;16.986;2023-02-18T10:29:49;3.75;;;1.70;;
10442;SDS011;5269;51.146;16.986;2023-02-18T10:32:18;2.33;;;1.48;;
10442;SDS011;5269;51.146;16.986;2023-02-18T10:34:48;1.88;;;1.50;;
10442;SDS011;5269;51.146;16.986;2023-02-18T10:37:24;2.08;;;1.55;;
10442;SDS011;5269;51.146;16.986;2023-02-18T10:40:05;2.33;;;1.73;;
10442;SDS011;5269;51.146;16.986;2023-02-18T10:42:38;2.50;;;1.20;;
10442;SDS011;5269;51.146;16.986;2023-02-18T10:45:16;3.10;;;1.55;;
10442;SDS011;5269;51.146;16.986;2023-02-18T10:47:50;2.30;;;1.40;;
10442;SDS011;5269;51.146;16.986;2023-02-18T10:50:29;2.63;;;1.42;;
10442;SDS011;5269;51.146;16.986;2023-02-18T10:53:00;2.58;;;1.30;;
10442;SDS011;5269;51.146;16.986;2023-02-18T10:55:35;2.45;;;1.60;;
10442;SDS011;5269;51.146;16.986;2023-02-18T10:58:09;3.22;;;1.52;;
10442;SDS011;5269;51.146;16.986;2023-02-18T11:00:50;5.45;;;1.65;;
10442;SDS011;5269;51.146;16.986;2023-02-18T11:03:18;4.00;;;1.67;;
10442;SDS011;5269;51.146;16.986;2023-02-18T11:05:47;4.03;;;1.70;;
10442;SDS011;5269;51.146;16.986;2023-02-18T11:08:17;3.80;;;1.50;;
10442;SDS011;5269;51.146;16.986;2023-02-18T11:10:49;2.67;;;1.27;;
10442;SDS011;5269;51.146;16.986;2023-02-18T11:13:17;6.22;;;1.65;;
10442;SDS011;5269;51.146;16.986;2023-02-18T11:15:55;3.58;;;1.67;;
10442;SDS011;5269;51.146;16.986;2023-02-18T11:18:34;2.78;;;1.40;;
10442;SDS011;5269;51.146;16.986;2023-02-18T11:21:04;1.88;;;1.30;;
10442;SDS011;5269;51.146;16.986;2023-02-18T11:23:44;1.50;;;1.30;;
10442;SDS011;5269;51.146;16.986;2023-02-18T11:26:15;3.13;;;1.40;;
10442;SDS011;5269;51.146;16.986;2023-02-18T11:28:45;1.75;;;1.48;;
10442;SDS011;5269;51.146;16.986;2023-02-18T11:31:19;3.25;;;1.55;;
10442;SDS011;5269;51.146;16.986;2023-02-18T11:33:49;4.88;;;2.03;;
10442;SDS011;5269;51.146;16.986;2023-02-18T11:36:20;5.47;;;1.90;;
10442;SDS011;5269;51.146;16.986;2023-02-18T11:38:50;5.57;;;2.00;;
10442;SDS011;5269;51.146;16.986;2023-02-18T11:41:21;4.05;;;2.10;;
10442;SDS011;5269;51.146;16.986;2023-02-18T11:43:58;2.90;;;1.75;;
10442;SDS011;5269;51.146;16.986;2023-02-18T11:46:26;2.58;;;1.92;;
10442;SDS011;5269;51.146;16.986;2023-02-18T11:48:53;7.05;;;2.20;;
10442;SDS011;5269;51.146;16.986;2023-02-18T11:51:23;4.47;;;2.17;;
10442;SDS011;5269;51.146;16.986;2023-02-18T11:53:55;5.72;;;2.17;;
10442;SDS011;5269;51.146;16.986;2023-02-18T11:56:30;3.95;;;2.15;;
10442;SDS011;5269;51.146;16.986;2023-02-18T11:58:59;4.22;;;2.20;;
10442;SDS011;5269;51.146;16.986;2023-02-18T12:01:38;7.43;;;2.47;;
10442;SDS011;5269;51.146;16.986;2023-02-18T12:04:11;6.18;;;2.25;;
10442;SDS011;5269;51.146;16.986;2023-02-18T12:06:42;4.72;;;2.53;;
10442;SDS011;5269;51.146;16.986;2023-02-18T12:09:19;5.43;;;2.83;;
10442;SDS011;5269;51.146;16.986;2023-02-18T12:11:54;3.67;;;2.78;;
10442;SDS011;5269;51.146;16.986;2023-02-18T12:14:24;5.13;;;2.80;;
10442;SDS011;5269;51.146;16.986;2023-02-18T12:17:10;5.85;;;2.58;;
10442;SDS011;5269;51.146;16.986;2023-02-18T12:22:58;4.72;;;2.80;;
10442;SDS011;5269;51.146;16.986;2023-02-18T12:25:31;4.75;;;2.67;;
10442;SDS011;5269;51.146;16.986;2023-02-18T12:28:14;4.85;;;2.70;;
10442;SDS011;5269;51.146;16.986;2023-02-18T12:30:58;7.70;;;3.10;;
10442;SDS011;5269;51.146;16.986;2023-02-18T12:33:40;9.25;;;3.53;;
10442;SDS011;5269;51.146;16.986;2023-02-18T12:36:23;5.65;;;2.60;;
10442;SDS011;5269;51.146;16.986;2023-02-18T12:39:04;5.35;;;2.97;;
10442;SDS011;5269;51.146;16.986;2023-02-18T12:41:49;6.65;;;3.00;;
10442;SDS011;5269;51.146;16.986;2023-02-18T12:44:35;7.32;;;3.17;;
10442;SDS011;5269;51.146;16.986;2023-02-18T12:50:02;5.00;;;3.50;;
10442;SDS011;5269;51.146;16.986;2023-02-18T12:53:23;5.03;;;3.17;;
10442;SDS011;5269;51.146;16.986;2023-02-18T12:56:03;5.63;;;3.53;;
10442;SDS011;5269;51.146;16.986;2023-02-18T13:02:02;8.18;;;3.95;;
10442;SDS011;5269;51.146;16.986;2023-02-18T13:04:47;12.80;;;4.13;;
10442;SDS011;5269;51.146;16.986;2023-02-18T13:07:24;9.20;;;4.75;;
10442;SDS011;5269;51.146;16.986;2023-02-18T13:10:29;8.75;;;5.03;;
10442;SDS011;5269;51.146;16.986;2023-02-18T13:13:09;9.32;;;5.03;;
10442;SDS011;5269;51.146;16.986;2023-02-18T13:15:42;9.05;;;5.47;;
10442;SDS011;5269;51.146;16.986;2023-02-18T13:18:14;10.13;;;6.57;;
10442;SDS011;5269;51.146;16.986;2023-02-18T13:20:46;6.30;;;5.03;;
10442;SDS011;5269;51.146;16.986;2023-02-18T13:23:17;12.00;;;6.03;;
10442;SDS011;5269;51.146;16.986;2023-02-18T13:25:44;8.95;;;5.03;;
10442;SDS011;5269;51.146;16.986;2023-02-18T13:28:17;11.77;;;6.10;;
10442;SDS011;5269;51.146;16.986;2023-02-18T13:30:50;9.68;;;5.57;;
10442;SDS011;5269;51.146;16.986;2023-02-18T13:33:26;11.05;;;6.38;;
10442;SDS011;5269;51.146;16.986;2023-02-18T13:36:02;10.55;;;6.53;;
10442;SDS011;5269;51.146;16.986;2023-02-18T13:38:47;10.40;;;6.53;;
10442;SDS011;5269;51.146;16.986;2023-02-18T13:41:20;9.55;;;6.13;;
10442;SDS011;5269;51.146;16.986;2023-02-18T13:43:47;10.40;;;6.82;;
10442;SDS011;5269;51.146;16.986;2023-02-18T13:46:15;10.87;;;7.07;;
10442;SDS011;5269;51.146;16.986;2023-02-18T13:48:48;12.88;;;6.22;;
10442;SDS011;5269;51.146;16.986;2023-02-18T13:51:17;12.00;;;6.85;;
10442;SDS011;5269;51.146;16.986;2023-02-18T13:53:56;11.02;;;6.30;;
10442;SDS011;5269;51.146;16.986;2023-02-18T13:56:27;12.35;;;6.07;;
10442;SDS011;5269;51.146;16.986;2023-02-18T13:58:58;7.35;;;5.70;;
10442;SDS011;5269;51.146;16.986;2023-02-18T14:01:38;10.05;;;5.97;;
10442;SDS011;5269;51.146;16.986;2023-02-18T14:13:22;8.68;;;5.72;;
10442;SDS011;5269;51.146;16.986;2023-02-18T14:16:07;12.32;;;5.57;;
10442;SDS011;5269;51.146;16.986;2023-02-18T14:19:02;8.63;;;6.13;;
10442;SDS011;5269;51.146;16.986;2023-02-18T14:21:52;9.27;;;5.82;;
10442;SDS011;5269;51.146;16.986;2023-02-18T14:24:53;8.63;;;6.10;;
10442;SDS011;5269;51.146;16.986;2023-02-18T14:27:44;9.80;;;6.82;;
10442;SDS011;5269;51.146;16.986;2023-02-18T14:30:30;10.00;;;6.57;;
10442;SDS011;5269;51.146;16.986;2023-02-18T14:33:21;13.60;;;6.57;;
10442;SDS011;5269;51.146;16.986;2023-02-18T14:35:59;11.68;;;6.70;;
10442;SDS011;5269;51.146;16.986;2023-02-18T14:39:14;11.20;;;6.78;;
10442;SDS011;5269;51.146;16.986;2023-02-18T14:42:01;11.13;;;6.28;;
10442;SDS011;5269;51.146;16.986;2023-02-18T14:44:46;9.27;;;6.80;;
10442;SDS011;5269;51.146;16.986;2023-02-18T14:47:28;14.60;;;7.30;;
10442;SDS011;5269;51.146;16.986;2023-02-18T14:50:08;14.15;;;7.60;;
10442;SDS011;5269;51.146;16.986;2023-02-18T14:52:37;12.55;;;7.30;;
10442;SDS011;5269;51.146;16.986;2023-02-18T14:55:13;16.02;;;7.68;;
10442;SDS011;5269;51.146;16.986;2023-02-18T14:57:44;12.30;;;7.40;;
10442;SDS011;5269;51.146;16.986;2023-02-18T15:00:16;10.18;;;6.90;;
10442;SDS011;5269;51.146;16.986;2023-02-18T15:02:46;12.73;;;6.90;;
10442;SDS011;5269;51.146;16.986;2023-02-18T15:05:15;10.20;;;6.55;;
10442;SDS011;5269;51.146;16.986;2023-02-18T15:07:54;8.80;;;6.72;;
10442;SDS011;5269;51.146;16.986;2023-02-18T15:10:24;13.38;;;7.72;;
10442;SDS011;5269;51.146;16.986;2023-02-18T15:13:01;11.70;;;7.47;;
10442;SDS011;5269;51.146;16.986;2023-02-18T15:15:30;12.88;;;7.50;;
10442;SDS011;5269;51.146;16.986;2023-02-18T15:17:59;10.00;;;6.45;;
10442;SDS011;5269;51.146;16.986;2023-02-18T15:20:27;12.73;;;7.03;;
10442;SDS011;5269;51.146;16.986;2023-02-18T15:22:57;11.43;;;8.32;;
10442;SDS011;5269;51.146;16.986;2023-02-18T15:25:25;7.15;;;4.95;;
10442;SDS011;5269;51.146;16.986;2023-02-18T15:27:52;6.00;;;4.47;;